Ravenglass, United Kingdom
Current Conditions -  °F | °C
As of 3:20 PM on Saturday 20 Dec 2014 (Local Time) from EGNH Reporting Station
Scattered Clouds Scattered Clouds  
Wind Chill:   Ceiling: Unl
Heat Index:   Visibility: 6mi
Dew Point:   Wind: 16mph
Humidity: 76%   Direction: 270°W
Pressure: 30.3"   Gusts: NA
Location:  54.36°N, 3.39°W
Report Text: EGNH 201520Z 27014KT 9999 FEW028 SCT033 09/05 Q1026
Loading
Personal Weather Stations






























Interactive Weather Map New forecast layout! Learn more

10-Day Weather Forecast

Advertisements
Track Severe Weather on mobile